sensor_id;sensor_type;location;lat;lon;timestamp;P1;durP1;ratioP1;P2;durP2;ratioP2
25972;SDS011;13765;51.166;4.466;2023-06-14T00:01:05;15.45;;;7.28;;
25972;SDS011;13765;51.166;4.466;2023-06-14T00:03:31;15.85;;;7.35;;
25972;SDS011;13765;51.166;4.466;2023-06-14T00:05:57;20.67;;;7.63;;
25972;SDS011;13765;51.166;4.466;2023-06-14T00:08:25;15.25;;;7.40;;
25972;SDS011;13765;51.166;4.466;2023-06-14T00:10:53;18.00;;;7.45;;
25972;SDS011;13765;51.166;4.466;2023-06-14T00:13:21;18.48;;;8.10;;
25972;SDS011;13765;51.166;4.466;2023-06-14T00:15:47;17.27;;;8.02;;
25972;SDS011;13765;51.166;4.466;2023-06-14T00:18:14;19.33;;;7.78;;
25972;SDS011;13765;51.166;4.466;2023-06-14T00:20:41;17.90;;;7.60;;
25972;SDS011;13765;51.166;4.466;2023-06-14T00:23:07;17.30;;;7.45;;
25972;SDS011;13765;51.166;4.466;2023-06-14T00:25:35;17.67;;;7.60;;
25972;SDS011;13765;51.166;4.466;2023-06-14T00:28:01;16.30;;;7.50;;
25972;SDS011;13765;51.166;4.466;2023-06-14T00:30:26;16.08;;;7.28;;
25972;SDS011;13765;51.166;4.466;2023-06-14T00:32:55;17.52;;;7.47;;
25972;SDS011;13765;51.166;4.466;2023-06-14T00:35:22;16.15;;;7.40;;
25972;SDS011;13765;51.166;4.466;2023-06-14T00:37:47;19.77;;;7.57;;
25972;SDS011;13765;51.166;4.466;2023-06-14T00:40:15;16.83;;;6.55;;
25972;SDS011;13765;51.166;4.466;2023-06-14T00:42:41;20.33;;;8.10;;
25972;SDS011;13765;51.166;4.466;2023-06-14T00:45:09;14.63;;;7.05;;
25972;SDS011;13765;51.166;4.466;2023-06-14T00:47:41;18.88;;;8.55;;
25972;SDS011;13765;51.166;4.466;2023-06-14T00:50:08;17.08;;;7.50;;
25972;SDS011;13765;51.166;4.466;2023-06-14T00:52:37;19.60;;;8.02;;
25972;SDS011;13765;51.166;4.466;2023-06-14T00:55:03;18.77;;;8.30;;
25972;SDS011;13765;51.166;4.466;2023-06-14T00:57:31;19.00;;;7.45;;
25972;SDS011;13765;51.166;4.466;2023-06-14T00:59:57;16.73;;;7.70;;
25972;SDS011;13765;51.166;4.466;2023-06-14T01:02:23;17.58;;;8.52;;
25972;SDS011;13765;51.166;4.466;2023-06-14T01:04:51;16.55;;;7.32;;
25972;SDS011;13765;51.166;4.466;2023-06-14T01:10:12;16.65;;;7.90;;
25972;SDS011;13765;51.166;4.466;2023-06-14T01:17:52;21.20;;;8.48;;
25972;SDS011;13765;51.166;4.466;2023-06-14T01:20:21;19.83;;;8.55;;
25972;SDS011;13765;51.166;4.466;2023-06-14T01:22:50;17.92;;;8.07;;
25972;SDS011;13765;51.166;4.466;2023-06-14T01:25:21;19.17;;;8.40;;
25972;SDS011;13765;51.166;4.466;2023-06-14T01:27:53;16.52;;;7.93;;
25972;SDS011;13765;51.166;4.466;2023-06-14T01:30:22;17.70;;;8.30;;
25972;SDS011;13765;51.166;4.466;2023-06-14T01:32:52;21.85;;;8.93;;
25972;SDS011;13765;51.166;4.466;2023-06-14T01:35:19;16.75;;;7.60;;
25972;SDS011;13765;51.166;4.466;2023-06-14T01:37:48;17.83;;;7.78;;
25972;SDS011;13765;51.166;4.466;2023-06-14T01:40:14;19.05;;;7.63;;
25972;SDS011;13765;51.166;4.466;2023-06-14T01:42:40;23.27;;;8.32;;
25972;SDS011;13765;51.166;4.466;2023-06-14T01:45:07;17.13;;;7.68;;
25972;SDS011;13765;51.166;4.466;2023-06-14T01:47:38;16.52;;;7.38;;
25972;SDS011;13765;51.166;4.466;2023-06-14T01:50:05;16.83;;;7.53;;
25972;SDS011;13765;51.166;4.466;2023-06-14T01:52:31;17.52;;;7.22;;
25972;SDS011;13765;51.166;4.466;2023-06-14T01:54:58;19.80;;;8.15;;
25972;SDS011;13765;51.166;4.466;2023-06-14T01:57:27;16.52;;;7.25;;
25972;SDS011;13765;51.166;4.466;2023-06-14T01:59:53;18.48;;;8.15;;
25972;SDS011;13765;51.166;4.466;2023-06-14T02:02:19;17.92;;;7.20;;
25972;SDS011;13765;51.166;4.466;2023-06-14T02:04:45;17.38;;;7.22;;
25972;SDS011;13765;51.166;4.466;2023-06-14T02:07:12;17.67;;;7.10;;
25972;SDS011;13765;51.166;4.466;2023-06-14T02:09:41;16.63;;;7.30;;
25972;SDS011;13765;51.166;4.466;2023-06-14T02:12:08;15.50;;;6.85;;
25972;SDS011;13765;51.166;4.466;2023-06-14T02:14:36;18.13;;;7.47;;
25972;SDS011;13765;51.166;4.466;2023-06-14T02:17:03;22.80;;;7.18;;
25972;SDS011;13765;51.166;4.466;2023-06-14T02:19:32;17.50;;;6.93;;
25972;SDS011;13765;51.166;4.466;2023-06-14T02:21:58;15.05;;;6.13;;
25972;SDS011;13765;51.166;4.466;2023-06-14T02:24:24;17.25;;;6.85;;
25972;SDS011;13765;51.166;4.466;2023-06-14T02:26:49;17.02;;;6.95;;
25972;SDS011;13765;51.166;4.466;2023-06-14T02:29:17;15.38;;;7.00;;
25972;SDS011;13765;51.166;4.466;2023-06-14T02:31:45;18.83;;;6.90;;
25972;SDS011;13765;51.166;4.466;2023-06-14T02:34:14;15.50;;;6.68;;
25972;SDS011;13765;51.166;4.466;2023-06-14T02:36:44;16.95;;;6.43;;
25972;SDS011;13765;51.166;4.466;2023-06-14T02:39:09;15.38;;;6.32;;
25972;SDS011;13765;51.166;4.466;2023-06-14T02:41:37;19.48;;;7.50;;
25972;SDS011;13765;51.166;4.466;2023-06-14T02:44:03;16.67;;;6.30;;
25972;SDS011;13765;51.166;4.466;2023-06-14T02:46:34;21.00;;;6.65;;
25972;SDS011;13765;51.166;4.466;2023-06-14T02:49:00;15.50;;;6.85;;
25972;SDS011;13765;51.166;4.466;2023-06-14T02:51:28;18.92;;;6.50;;
25972;SDS011;13765;51.166;4.466;2023-06-14T02:53:53;15.35;;;6.50;;
25972;SDS011;13765;51.166;4.466;2023-06-14T02:56:21;16.05;;;6.45;;
25972;SDS011;13765;51.166;4.466;2023-06-14T02:58:52;14.50;;;6.28;;
25972;SDS011;13765;51.166;4.466;2023-06-14T03:01:18;14.95;;;5.95;;
25972;SDS011;13765;51.166;4.466;2023-06-14T03:03:48;14.63;;;6.05;;
25972;SDS011;13765;51.166;4.466;2023-06-14T03:06:16;15.02;;;6.07;;
25972;SDS011;13765;51.166;4.466;2023-06-14T03:08:42;16.08;;;6.20;;
25972;SDS011;13765;51.166;4.466;2023-06-14T03:11:08;15.70;;;6.03;;
25972;SDS011;13765;51.166;4.466;2023-06-14T03:13:39;16.48;;;6.75;;
25972;SDS011;13765;51.166;4.466;2023-06-14T03:16:05;15.55;;;6.57;;
25972;SDS011;13765;51.166;4.466;2023-06-14T03:18:32;13.65;;;5.35;;
25972;SDS011;13765;51.166;4.466;2023-06-14T03:21:01;16.77;;;6.25;;
25972;SDS011;13765;51.166;4.466;2023-06-14T03:23:34;15.15;;;6.50;;
25972;SDS011;13765;51.166;4.466;2023-06-14T03:26:01;15.73;;;7.03;;
25972;SDS011;13765;51.166;4.466;2023-06-14T03:28:27;16.70;;;6.20;;
25972;SDS011;13765;51.166;4.466;2023-06-14T03:30:55;14.07;;;6.18;;
25972;SDS011;13765;51.166;4.466;2023-06-14T03:33:23;15.95;;;6.25;;
25972;SDS011;13765;51.166;4.466;2023-06-14T03:35:50;15.65;;;6.22;;
25972;SDS011;13765;51.166;4.466;2023-06-14T03:38:16;17.60;;;7.03;;
25972;SDS011;13765;51.166;4.466;2023-06-14T03:40:41;15.55;;;5.68;;
25972;SDS011;13765;51.166;4.466;2023-06-14T03:43:07;17.13;;;6.50;;
25972;SDS011;13765;51.166;4.466;2023-06-14T03:45:33;13.77;;;5.90;;
25972;SDS011;13765;51.166;4.466;2023-06-14T03:47:58;13.25;;;5.50;;
25972;SDS011;13765;51.166;4.466;2023-06-14T03:50:28;17.50;;;5.60;;
25972;SDS011;13765;51.166;4.466;2023-06-14T03:52:53;13.55;;;5.70;;
25972;SDS011;13765;51.166;4.466;2023-06-14T03:55:19;15.55;;;6.32;;
25972;SDS011;13765;51.166;4.466;2023-06-14T03:57:45;20.33;;;6.88;;
25972;SDS011;13765;51.166;4.466;2023-06-14T04:00:15;16.27;;;5.50;;
25972;SDS011;13765;51.166;4.466;2023-06-14T04:02:41;18.52;;;6.88;;
25972;SDS011;13765;51.166;4.466;2023-06-14T04:05:09;15.10;;;6.45;;
25972;SDS011;13765;51.166;4.466;2023-06-14T04:07:35;14.35;;;5.97;;
25972;SDS011;13765;51.166;4.466;2023-06-14T04:10:09;18.83;;;6.05;;
25972;SDS011;13765;51.166;4.466;2023-06-14T04:12:39;15.93;;;6.00;;
25972;SDS011;13765;51.166;4.466;2023-06-14T04:15:07;14.68;;;6.07;;
25972;SDS011;13765;51.166;4.466;2023-06-14T04:17:34;20.35;;;6.10;;
25972;SDS011;13765;51.166;4.466;2023-06-14T04:20:02;13.88;;;5.75;;
25972;SDS011;13765;51.166;4.466;2023-06-14T04:22:32;13.50;;;6.00;;
25972;SDS011;13765;51.166;4.466;2023-06-14T04:24:58;12.05;;;5.63;;
25972;SDS011;13765;51.166;4.466;2023-06-14T04:27:27;18.13;;;6.10;;
25972;SDS011;13765;51.166;4.466;2023-06-14T04:30:00;15.38;;;6.15;;
25972;SDS011;13765;51.166;4.466;2023-06-14T04:32:27;14.98;;;5.82;;
25972;SDS011;13765;51.166;4.466;2023-06-14T04:34:57;15.75;;;6.03;;
25972;SDS011;13765;51.166;4.466;2023-06-14T04:37:31;15.95;;;6.15;;
25972;SDS011;13765;51.166;4.466;2023-06-14T04:39:59;14.65;;;5.88;;
25972;SDS011;13765;51.166;4.466;2023-06-14T04:42:32;15.57;;;6.30;;
25972;SDS011;13765;51.166;4.466;2023-06-14T04:44:58;18.58;;;6.90;;
25972;SDS011;13765;51.166;4.466;2023-06-14T04:47:23;14.70;;;5.45;;
25972;SDS011;13765;51.166;4.466;2023-06-14T04:49:54;19.20;;;6.45;;
25972;SDS011;13765;51.166;4.466;2023-06-14T04:52:22;14.27;;;6.03;;
25972;SDS011;13765;51.166;4.466;2023-06-14T04:54:51;15.43;;;5.53;;
25972;SDS011;13765;51.166;4.466;2023-06-14T04:57:19;17.33;;;5.80;;
25972;SDS011;13765;51.166;4.466;2023-06-14T04:59:47;14.20;;;6.32;;
25972;SDS011;13765;51.166;4.466;2023-06-14T05:02:13;16.08;;;6.07;;
25972;SDS011;13765;51.166;4.466;2023-06-14T05:04:41;17.98;;;6.40;;
25972;SDS011;13765;51.166;4.466;2023-06-14T05:07:07;18.38;;;6.93;;
25972;SDS011;13765;51.166;4.466;2023-06-14T05:09:36;21.02;;;6.43;;
25972;SDS011;13765;51.166;4.466;2023-06-14T05:12:06;16.08;;;6.38;;
25972;SDS011;13765;51.166;4.466;2023-06-14T05:14:37;15.40;;;6.15;;
25972;SDS011;13765;51.166;4.466;2023-06-14T05:17:03;15.85;;;6.43;;
25972;SDS011;13765;51.166;4.466;2023-06-14T05:19:28;18.17;;;5.88;;
25972;SDS011;13765;51.166;4.466;2023-06-14T05:21:54;16.20;;;6.28;;
25972;SDS011;13765;51.166;4.466;2023-06-14T05:24:20;16.25;;;5.95;;
25972;SDS011;13765;51.166;4.466;2023-06-14T05:26:46;17.13;;;5.65;;
25972;SDS011;13765;51.166;4.466;2023-06-14T05:29:12;14.30;;;5.63;;
25972;SDS011;13765;51.166;4.466;2023-06-14T05:31:38;14.80;;;6.00;;
25972;SDS011;13765;51.166;4.466;2023-06-14T05:34:03;17.17;;;6.03;;
25972;SDS011;13765;51.166;4.466;2023-06-14T05:36:29;17.90;;;6.95;;
25972;SDS011;13765;51.166;4.466;2023-06-14T05:38:58;17.02;;;6.32;;
25972;SDS011;13765;51.166;4.466;2023-06-14T05:41:29;14.15;;;6.65;;
25972;SDS011;13765;51.166;4.466;2023-06-14T05:43:57;18.17;;;6.88;;
25972;SDS011;13765;51.166;4.466;2023-06-14T05:46:25;13.20;;;5.78;;
25972;SDS011;13765;51.166;4.466;2023-06-14T05:48:53;15.35;;;6.07;;
25972;SDS011;13765;51.166;4.466;2023-06-14T05:51:20;15.65;;;6.25;;
25972;SDS011;13765;51.166;4.466;2023-06-14T05:53:50;17.38;;;6.22;;
25972;SDS011;13765;51.166;4.466;2023-06-14T05:56:17;13.90;;;5.88;;
25972;SDS011;13765;51.166;4.466;2023-06-14T05:58:46;17.58;;;7.57;;
25972;SDS011;13765;51.166;4.466;2023-06-14T06:01:17;16.33;;;5.88;;
25972;SDS011;13765;51.166;4.466;2023-06-14T06:03:43;20.40;;;5.97;;
25972;SDS011;13765;51.166;4.466;2023-06-14T06:06:12;17.30;;;6.97;;
25972;SDS011;13765;51.166;4.466;2023-06-14T06:08:37;16.83;;;6.38;;
25972;SDS011;13765;51.166;4.466;2023-06-14T06:11:03;18.30;;;6.43;;
25972;SDS011;13765;51.166;4.466;2023-06-14T06:13:31;13.90;;;5.72;;
25972;SDS011;13765;51.166;4.466;2023-06-14T06:15:57;21.38;;;6.78;;
25972;SDS011;13765;51.166;4.466;2023-06-14T06:18:23;18.73;;;6.65;;
25972;SDS011;13765;51.166;4.466;2023-06-14T06:20:49;16.10;;;6.85;;
25972;SDS011;13765;51.166;4.466;2023-06-14T06:23:17;17.50;;;6.82;;
25972;SDS011;13765;51.166;4.466;2023-06-14T06:25:43;15.77;;;6.35;;
25972;SDS011;13765;51.166;4.466;2023-06-14T06:28:08;14.35;;;6.00;;
25972;SDS011;13765;51.166;4.466;2023-06-14T06:30:34;17.73;;;6.70;;
25972;SDS011;13765;51.166;4.466;2023-06-14T06:33:01;16.55;;;5.88;;
25972;SDS011;13765;51.166;4.466;2023-06-14T06:35:28;16.33;;;6.47;;
25972;SDS011;13765;51.166;4.466;2023-06-14T06:37:58;13.23;;;6.00;;
25972;SDS011;13765;51.166;4.466;2023-06-14T06:40:26;17.50;;;6.18;;
25972;SDS011;13765;51.166;4.466;2023-06-14T06:42:52;14.73;;;6.28;;
25972;SDS011;13765;51.166;4.466;2023-06-14T06:45:18;16.30;;;6.40;;
25972;SDS011;13765;51.166;4.466;2023-06-14T06:50:13;18.65;;;6.40;;
25972;SDS011;13765;51.166;4.466;2023-06-14T06:52:39;17.50;;;6.03;;
25972;SDS011;13765;51.166;4.466;2023-06-14T06:55:04;21.77;;;6.95;;
25972;SDS011;13765;51.166;4.466;2023-06-14T06:57:30;15.27;;;5.50;;
25972;SDS011;13765;51.166;4.466;2023-06-14T06:59:56;14.77;;;6.15;;
25972;SDS011;13765;51.166;4.466;2023-06-14T07:02:22;15.82;;;7.60;;
25972;SDS011;13765;51.166;4.466;2023-06-14T07:04:48;14.30;;;5.93;;
25972;SDS011;13765;51.166;4.466;2023-06-14T07:07:14;16.30;;;6.53;;
25972;SDS011;13765;51.166;4.466;2023-06-14T07:09:40;16.25;;;5.90;;
25972;SDS011;13765;51.166;4.466;2023-06-14T07:12:06;17.05;;;6.15;;
25972;SDS011;13765;51.166;4.466;2023-06-14T07:14:32;15.30;;;6.55;;
25972;SDS011;13765;51.166;4.466;2023-06-14T07:16:58;19.83;;;6.40;;
25972;SDS011;13765;51.166;4.466;2023-06-14T07:19:24;17.50;;;6.22;;
25972;SDS011;13765;51.166;4.466;2023-06-14T07:21:50;14.63;;;6.18;;
25972;SDS011;13765;51.166;4.466;2023-06-14T07:24:15;15.80;;;6.00;;
25972;SDS011;13765;51.166;4.466;2023-06-14T07:26:41;15.15;;;5.80;;
25972;SDS011;13765;51.166;4.466;2023-06-14T07:29:06;14.85;;;6.32;;
25972;SDS011;13765;51.166;4.466;2023-06-14T07:31:32;15.95;;;6.40;;
25972;SDS011;13765;51.166;4.466;2023-06-14T07:33:58;17.60;;;6.45;;
25972;SDS011;13765;51.166;4.466;2023-06-14T07:36:23;15.02;;;5.90;;
25972;SDS011;13765;51.166;4.466;2023-06-14T07:38:49;16.25;;;6.40;;
25972;SDS011;13765;51.166;4.466;2023-06-14T07:41:15;15.35;;;5.50;;
25972;SDS011;13765;51.166;4.466;2023-06-14T07:43:41;17.45;;;6.32;;
25972;SDS011;13765;51.166;4.466;2023-06-14T07:46:07;11.50;;;5.60;;
25972;SDS011;13765;51.166;4.466;2023-06-14T07:48:34;15.13;;;5.90;;
25972;SDS011;13765;51.166;4.466;2023-06-14T07:51:07;13.45;;;5.65;;
25972;SDS011;13765;51.166;4.466;2023-06-14T07:53:33;15.40;;;6.25;;
25972;SDS011;13765;51.166;4.466;2023-06-14T07:55:59;13.20;;;5.57;;
25972;SDS011;13765;51.166;4.466;2023-06-14T07:58:25;12.32;;;5.35;;
25972;SDS011;13765;51.166;4.466;2023-06-14T08:00:55;17.10;;;5.43;;
25972;SDS011;13765;51.166;4.466;2023-06-14T08:03:21;15.15;;;5.85;;
25972;SDS011;13765;51.166;4.466;2023-06-14T08:05:47;17.02;;;6.55;;
25972;SDS011;13765;51.166;4.466;2023-06-14T08:08:13;15.70;;;6.07;;
25972;SDS011;13765;51.166;4.466;2023-06-14T08:10:39;14.38;;;5.80;;
25972;SDS011;13765;51.166;4.466;2023-06-14T08:13:04;16.75;;;5.90;;
25972;SDS011;13765;51.166;4.466;2023-06-14T08:15:30;12.82;;;5.55;;
25972;SDS011;13765;51.166;4.466;2023-06-14T08:17:56;17.02;;;6.15;;
25972;SDS011;13765;51.166;4.466;2023-06-14T08:20:24;14.18;;;5.85;;
25972;SDS011;13765;51.166;4.466;2023-06-14T08:22:50;16.52;;;6.40;;
25972;SDS011;13765;51.166;4.466;2023-06-14T08:25:20;15.27;;;5.97;;
25972;SDS011;13765;51.166;4.466;2023-06-14T08:27:45;15.88;;;6.07;;
25972;SDS011;13765;51.166;4.466;2023-06-14T08:30:14;15.18;;;5.57;;
25972;SDS011;13765;51.166;4.466;2023-06-14T08:32:40;14.60;;;5.45;;
25972;SDS011;13765;51.166;4.466;2023-06-14T08:35:06;13.50;;;5.55;;
25972;SDS011;13765;51.166;4.466;2023-06-14T08:37:32;21.42;;;6.28;;
25972;SDS011;13765;51.166;4.466;2023-06-14T08:40:01;16.58;;;5.93;;
25972;SDS011;13765;51.166;4.466;2023-06-14T08:42:29;17.20;;;5.85;;
25972;SDS011;13765;51.166;4.466;2023-06-14T08:44:57;20.83;;;5.95;;
25972;SDS011;13765;51.166;4.466;2023-06-14T08:47:23;13.75;;;5.53;;
25972;SDS011;13765;51.166;4.466;2023-06-14T08:49:51;14.80;;;5.40;;
25972;SDS011;13765;51.166;4.466;2023-06-14T08:52:22;10.98;;;5.10;;
25972;SDS011;13765;51.166;4.466;2023-06-14T08:54:48;13.25;;;5.68;;
25972;SDS011;13765;51.166;4.466;2023-06-14T08:57:14;19.45;;;6.55;;
25972;SDS011;13765;51.166;4.466;2023-06-14T08:59:44;14.73;;;5.53;;
25972;SDS011;13765;51.166;4.466;2023-06-14T09:02:14;14.55;;;5.38;;
25972;SDS011;13765;51.166;4.466;2023-06-14T09:04:42;14.75;;;5.60;;
25972;SDS011;13765;51.166;4.466;2023-06-14T09:07:09;14.50;;;5.53;;
25972;SDS011;13765;51.166;4.466;2023-06-14T09:09:38;15.52;;;5.88;;
25972;SDS011;13765;51.166;4.466;2023-06-14T09:12:12;15.43;;;6.72;;
25972;SDS011;13765;51.166;4.466;2023-06-14T09:14:38;11.70;;;5.00;;
25972;SDS011;13765;51.166;4.466;2023-06-14T09:17:06;15.32;;;6.53;;
25972;SDS011;13765;51.166;4.466;2023-06-14T09:19:33;15.27;;;5.90;;
25972;SDS011;13765;51.166;4.466;2023-06-14T09:22:01;15.00;;;5.85;;
25972;SDS011;13765;51.166;4.466;2023-06-14T09:24:28;15.27;;;4.95;;
25972;SDS011;13765;51.166;4.466;2023-06-14T09:26:53;13.18;;;5.60;;
25972;SDS011;13765;51.166;4.466;2023-06-14T09:29:19;13.52;;;5.82;;
25972;SDS011;13765;51.166;4.466;2023-06-14T09:31:48;15.02;;;5.40;;
25972;SDS011;13765;51.166;4.466;2023-06-14T09:34:13;14.38;;;5.22;;
25972;SDS011;13765;51.166;4.466;2023-06-14T09:36:43;14.00;;;5.13;;
25972;SDS011;13765;51.166;4.466;2023-06-14T09:39:08;12.27;;;5.00;;
25972;SDS011;13765;51.166;4.466;2023-06-14T09:41:40;12.40;;;5.10;;
25972;SDS011;13765;51.166;4.466;2023-06-14T09:44:09;10.80;;;4.97;;
25972;SDS011;13765;51.166;4.466;2023-06-14T09:46:37;13.85;;;4.75;;
25972;SDS011;13765;51.166;4.466;2023-06-14T09:49:03;13.40;;;5.90;;
25972;SDS011;13765;51.166;4.466;2023-06-14T09:51:30;10.93;;;4.70;;
25972;SDS011;13765;51.166;4.466;2023-06-14T09:54:01;14.68;;;4.53;;
25972;SDS011;13765;51.166;4.466;2023-06-14T09:56:31;14.48;;;5.13;;
25972;SDS011;13765;51.166;4.466;2023-06-14T09:59:05;13.68;;;5.03;;
25972;SDS011;13765;51.166;4.466;2023-06-14T10:01:34;14.95;;;5.10;;
25972;SDS011;13765;51.166;4.466;2023-06-14T10:04:04;10.32;;;4.28;;
25972;SDS011;13765;51.166;4.466;2023-06-14T10:06:31;11.80;;;5.30;;
25972;SDS011;13765;51.166;4.466;2023-06-14T10:08:58;11.70;;;4.63;;
25972;SDS011;13765;51.166;4.466;2023-06-14T10:11:26;11.20;;;4.47;;
25972;SDS011;13765;51.166;4.466;2023-06-14T10:13:55;10.98;;;4.45;;
25972;SDS011;13765;51.166;4.466;2023-06-14T10:19:03;12.30;;;4.70;;
25972;SDS011;13765;51.166;4.466;2023-06-14T10:21:51;13.05;;;4.63;;
25972;SDS011;13765;51.166;4.466;2023-06-14T10:24:28;12.85;;;4.55;;
25972;SDS011;13765;51.166;4.466;2023-06-14T10:26:57;11.68;;;4.65;;
25972;SDS011;13765;51.166;4.466;2023-06-14T10:29:29;11.85;;;4.43;;
25972;SDS011;13765;51.166;4.466;2023-06-14T10:31:57;13.10;;;4.30;;
25972;SDS011;13765;51.166;4.466;2023-06-14T10:34:25;12.23;;;4.30;;
25972;SDS011;13765;51.166;4.466;2023-06-14T10:36:59;11.20;;;4.47;;
25972;SDS011;13765;51.166;4.466;2023-06-14T10:39:29;12.48;;;4.03;;
25972;SDS011;13765;51.166;4.466;2023-06-14T10:41:56;10.80;;;3.72;;
25972;SDS011;13765;51.166;4.466;2023-06-14T10:46:53;9.02;;;4.10;;
25972;SDS011;13765;51.166;4.466;2023-06-14T10:49:19;9.40;;;4.20;;
25972;SDS011;13765;51.166;4.466;2023-06-14T10:51:49;11.45;;;4.20;;
25972;SDS011;13765;51.166;4.466;2023-06-14T10:54:16;10.02;;;3.92;;
25972;SDS011;13765;51.166;4.466;2023-06-14T10:56:49;10.68;;;4.05;;
25972;SDS011;13765;51.166;4.466;2023-06-14T10:59:16;11.00;;;4.28;;
25972;SDS011;13765;51.166;4.466;2023-06-14T11:04:15;10.10;;;3.70;;
25972;SDS011;13765;51.166;4.466;2023-06-14T11:06:48;18.52;;;4.53;;
25972;SDS011;13765;51.166;4.466;2023-06-14T11:12:06;13.25;;;3.65;;
25972;SDS011;13765;51.166;4.466;2023-06-14T11:14:36;11.82;;;3.95;;
25972;SDS011;13765;51.166;4.466;2023-06-14T11:17:01;11.32;;;4.00;;
25972;SDS011;13765;51.166;4.466;2023-06-14T11:19:27;13.52;;;3.70;;
25972;SDS011;13765;51.166;4.466;2023-06-14T11:21:54;12.85;;;3.75;;
25972;SDS011;13765;51.166;4.466;2023-06-14T11:24:20;13.43;;;4.00;;
25972;SDS011;13765;51.166;4.466;2023-06-14T11:26:46;9.18;;;3.90;;
25972;SDS011;13765;51.166;4.466;2023-06-14T11:29:14;8.27;;;3.83;;
25972;SDS011;13765;51.166;4.466;2023-06-14T11:31:44;9.63;;;3.58;;
25972;SDS011;13765;51.166;4.466;2023-06-14T11:34:11;9.10;;;3.88;;
25972;SDS011;13765;51.166;4.466;2023-06-14T11:36:38;8.35;;;3.78;;
25972;SDS011;13765;51.166;4.466;2023-06-14T11:39:06;10.88;;;4.13;;
25972;SDS011;13765;51.166;4.466;2023-06-14T11:41:37;11.38;;;4.20;;
25972;SDS011;13765;51.166;4.466;2023-06-14T11:44:04;12.43;;;4.22;;
25972;SDS011;13765;51.166;4.466;2023-06-14T11:46:30;15.85;;;3.72;;
25972;SDS011;13765;51.166;4.466;2023-06-14T11:48:56;9.32;;;4.10;;
25972;SDS011;13765;51.166;4.466;2023-06-14T11:51:23;13.18;;;3.75;;
25972;SDS011;13765;51.166;4.466;2023-06-14T11:53:48;12.32;;;4.32;;
25972;SDS011;13765;51.166;4.466;2023-06-14T11:56:14;12.70;;;3.53;;
25972;SDS011;13765;51.166;4.466;2023-06-14T11:58:42;7.88;;;3.60;;
25972;SDS011;13765;51.166;4.466;2023-06-14T12:01:08;11.73;;;3.95;;
25972;SDS011;13765;51.166;4.466;2023-06-14T12:03:34;7.80;;;3.90;;
25972;SDS011;13765;51.166;4.466;2023-06-14T12:08:34;9.55;;;4.43;;
25972;SDS011;13765;51.166;4.466;2023-06-14T12:11:05;9.82;;;3.95;;
25972;SDS011;13765;51.166;4.466;2023-06-14T12:13:39;9.48;;;3.92;;
25972;SDS011;13765;51.166;4.466;2023-06-14T12:16:08;10.80;;;3.50;;
25972;SDS011;13765;51.166;4.466;2023-06-14T12:18:38;12.52;;;4.07;;
25972;SDS011;13765;51.166;4.466;2023-06-14T12:21:06;8.07;;;3.42;;
25972;SDS011;13765;51.166;4.466;2023-06-14T12:24:05;7.70;;;3.63;;
25972;SDS011;13765;51.166;4.466;2023-06-14T12:26:26;10.90;;;5.07;;
25972;SDS011;13765;51.166;4.466;2023-06-14T12:28:52;14.45;;;3.58;;
25972;SDS011;13765;51.166;4.466;2023-06-14T12:31:18;10.60;;;3.42;;
25972;SDS011;13765;51.166;4.466;2023-06-14T12:33:43;9.10;;;3.13;;
25972;SDS011;13765;51.166;4.466;2023-06-14T12:36:11;7.55;;;3.22;;
25972;SDS011;13765;51.166;4.466;2023-06-14T12:38:37;9.73;;;3.53;;
25972;SDS011;13765;51.166;4.466;2023-06-14T12:41:03;9.88;;;3.08;;
25972;SDS011;13765;51.166;4.466;2023-06-14T12:43:29;11.02;;;3.78;;
25972;SDS011;13765;51.166;4.466;2023-06-14T12:45:54;7.35;;;2.92;;
25972;SDS011;13765;51.166;4.466;2023-06-14T12:48:20;10.10;;;3.33;;
25972;SDS011;13765;51.166;4.466;2023-06-14T12:50:46;6.60;;;2.90;;
25972;SDS011;13765;51.166;4.466;2023-06-14T12:53:12;6.80;;;2.70;;
25972;SDS011;13765;51.166;4.466;2023-06-14T12:55:37;8.38;;;2.63;;
25972;SDS011;13765;51.166;4.466;2023-06-14T12:58:03;6.25;;;2.60;;
25972;SDS011;13765;51.166;4.466;2023-06-14T13:00:29;7.80;;;3.00;;
25972;SDS011;13765;51.166;4.466;2023-06-14T13:02:55;8.45;;;2.28;;
25972;SDS011;13765;51.166;4.466;2023-06-14T13:05:22;7.28;;;3.00;;
25972;SDS011;13765;51.166;4.466;2023-06-14T13:07:48;7.88;;;2.60;;
25972;SDS011;13765;51.166;4.466;2023-06-14T13:10:14;10.95;;;3.08;;
25972;SDS011;13765;51.166;4.466;2023-06-14T13:12:39;6.35;;;2.42;;
25972;SDS011;13765;51.166;4.466;2023-06-14T13:15:05;5.68;;;2.20;;
25972;SDS011;13765;51.166;4.466;2023-06-14T13:17:33;6.55;;;2.10;;
25972;SDS011;13765;51.166;4.466;2023-06-14T13:20:03;10.23;;;2.10;;
25972;SDS011;13765;51.166;4.466;2023-06-14T13:22:33;5.45;;;2.15;;
25972;SDS011;13765;51.166;4.466;2023-06-14T13:24:59;5.65;;;2.00;;
25972;SDS011;13765;51.166;4.466;2023-06-14T13:27:25;7.32;;;2.40;;
25972;SDS011;13765;51.166;4.466;2023-06-14T13:29:52;4.95;;;1.80;;
25972;SDS011;13765;51.166;4.466;2023-06-14T13:32:17;8.02;;;2.55;;
25972;SDS011;13765;51.166;4.466;2023-06-14T13:34:43;5.28;;;1.75;;
25972;SDS011;13765;51.166;4.466;2023-06-14T14:01:09;4.25;;;2.20;;
25972;SDS011;13765;51.166;4.466;2023-06-14T14:03:35;7.82;;;2.10;;
25972;SDS011;13765;51.166;4.466;2023-06-14T14:06:03;7.93;;;2.35;;
25972;SDS011;13765;51.166;4.466;2023-06-14T14:08:29;7.07;;;2.10;;
25972;SDS011;13765;51.166;4.466;2023-06-14T14:10:55;6.10;;;2.38;;
25972;SDS011;13765;51.166;4.466;2023-06-14T14:13:23;4.00;;;2.47;;
25972;SDS011;13765;51.166;4.466;2023-06-14T14:15:50;6.28;;;2.55;;
25972;SDS011;13765;51.166;4.466;2023-06-14T14:18:15;3.78;;;2.10;;
25972;SDS011;13765;51.166;4.466;2023-06-14T14:20:41;4.28;;;2.25;;
25972;SDS011;13765;51.166;4.466;2023-06-14T14:23:07;5.43;;;2.40;;
25972;SDS011;13765;51.166;4.466;2023-06-14T14:25:34;9.23;;;2.25;;
25972;SDS011;13765;51.166;4.466;2023-06-14T14:28:00;5.15;;;2.17;;
25972;SDS011;13765;51.166;4.466;2023-06-14T14:30:26;8.25;;;2.33;;
25972;SDS011;13765;51.166;4.466;2023-06-14T14:32:51;8.45;;;2.20;;
25972;SDS011;13765;51.166;4.466;2023-06-14T14:35:17;5.75;;;1.98;;
25972;SDS011;13765;51.166;4.466;2023-06-14T14:37:45;8.45;;;2.20;;
25972;SDS011;13765;51.166;4.466;2023-06-14T14:40:11;4.80;;;1.88;;
25972;SDS011;13765;51.166;4.466;2023-06-14T14:42:37;3.85;;;2.15;;
25972;SDS011;13765;51.166;4.466;2023-06-14T14:45:03;5.43;;;2.10;;
25972;SDS011;13765;51.166;4.466;2023-06-14T14:47:29;4.20;;;1.98;;
25972;SDS011;13765;51.166;4.466;2023-06-14T14:49:54;6.68;;;2.10;;
25972;SDS011;13765;51.166;4.466;2023-06-14T14:52:20;4.18;;;2.30;;
25972;SDS011;13765;51.166;4.466;2023-06-14T14:54:46;6.13;;;2.05;;
25972;SDS011;13765;51.166;4.466;2023-06-14T14:57:11;7.78;;;2.08;;
25972;SDS011;13765;51.166;4.466;2023-06-14T14:59:37;5.40;;;2.13;;
25972;SDS011;13765;51.166;4.466;2023-06-14T15:02:03;4.47;;;2.15;;
25972;SDS011;13765;51.166;4.466;2023-06-14T15:04:29;6.88;;;2.20;;
25972;SDS011;13765;51.166;4.466;2023-06-14T15:06:54;8.65;;;2.83;;
25972;SDS011;13765;51.166;4.466;2023-06-14T15:09:20;6.60;;;2.50;;
25972;SDS011;13765;51.166;4.466;2023-06-14T15:11:47;8.77;;;2.30;;
25972;SDS011;13765;51.166;4.466;2023-06-14T15:14:13;9.27;;;2.22;;
25972;SDS011;13765;51.166;4.466;2023-06-14T15:16:41;9.43;;;1.83;;
25972;SDS011;13765;51.166;4.466;2023-06-14T15:19:07;8.45;;;2.20;;
25972;SDS011;13765;51.166;4.466;2023-06-14T15:21:33;5.03;;;2.17;;
25972;SDS011;13765;51.166;4.466;2023-06-14T15:23:58;4.85;;;1.80;;
25972;SDS011;13765;51.166;4.466;2023-06-14T15:26:24;4.32;;;2.20;;